sensor_id;sensor_type;location;lat;lon;timestamp;pressure;altitude;pressure_sealevel;temperature;humidity
64460;BME280;50828;53.756;21.140;2023-04-23T00:02:43;99593.91;;;6.22;57.02
64460;BME280;50828;53.756;21.140;2023-04-23T00:07:52;99597.14;;;6.19;56.89
64460;BME280;50828;53.756;21.140;2023-04-23T00:13:01;99595.38;;;6.14;56.85
64460;BME280;50828;53.756;21.140;2023-04-23T00:18:08;99596.94;;;6.09;56.64
64460;BME280;50828;53.756;21.140;2023-04-23T00:23:16;99601.98;;;6.04;56.55
64460;BME280;50828;53.756;21.140;2023-04-23T00:28:23;99598.32;;;5.97;56.80
64460;BME280;50828;53.756;21.140;2023-04-23T00:33:32;99597.18;;;5.94;57.04
64460;BME280;50828;53.756;21.140;2023-04-23T00:38:39;99593.27;;;5.91;56.94
64460;BME280;50828;53.756;21.140;2023-04-23T00:43:47;99592.30;;;5.87;57.09
64460;BME280;50828;53.756;21.140;2023-04-23T00:48:58;99593.65;;;5.83;57.02
64460;BME280;50828;53.756;21.140;2023-04-23T00:54:07;99595.09;;;5.81;57.22
64460;BME280;50828;53.756;21.140;2023-04-23T00:59:14;99595.19;;;5.78;57.21
64460;BME280;50828;53.756;21.140;2023-04-23T01:04:25;99594.77;;;5.74;57.50
64460;BME280;50828;53.756;21.140;2023-04-23T01:09:34;99591.08;;;5.69;57.71
64460;BME280;50828;53.756;21.140;2023-04-23T01:14:42;99597.08;;;5.66;57.80
64460;BME280;50828;53.756;21.140;2023-04-23T01:19:50;99595.43;;;5.63;57.92
64460;BME280;50828;53.756;21.140;2023-04-23T01:24:58;99596.56;;;5.60;58.00
64460;BME280;50828;53.756;21.140;2023-04-23T01:30:07;99587.55;;;5.57;58.18
64460;BME280;50828;53.756;21.140;2023-04-23T01:35:15;99587.40;;;5.57;58.32
64460;BME280;50828;53.756;21.140;2023-04-23T01:40:23;99590.09;;;5.55;58.39
64460;BME280;50828;53.756;21.140;2023-04-23T01:45:31;99589.20;;;5.49;58.66
64460;BME280;50828;53.756;21.140;2023-04-23T01:50:40;99589.58;;;5.48;58.70
64460;BME280;50828;53.756;21.140;2023-04-23T01:55:49;99589.59;;;5.47;59.00
64460;BME280;50828;53.756;21.140;2023-04-23T02:00:57;99586.02;;;5.43;58.85
64460;BME280;50828;53.756;21.140;2023-04-23T02:06:06;99587.69;;;5.40;58.87
64460;BME280;50828;53.756;21.140;2023-04-23T02:11:13;99580.33;;;5.35;58.76
64460;BME280;50828;53.756;21.140;2023-04-23T02:16:21;99577.70;;;5.28;58.64
64460;BME280;50828;53.756;21.140;2023-04-23T02:21:29;99573.13;;;5.23;58.74
64460;BME280;50828;53.756;21.140;2023-04-23T02:26:37;99569.43;;;5.18;58.84
64460;BME280;50828;53.756;21.140;2023-04-23T02:31:45;99566.39;;;5.14;58.94
64460;BME280;50828;53.756;21.140;2023-04-23T02:36:53;99564.79;;;5.09;58.93
64460;BME280;50828;53.756;21.140;2023-04-23T02:42:00;99560.86;;;5.05;58.86
64460;BME280;50828;53.756;21.140;2023-04-23T02:47:08;99558.89;;;5.01;58.86
64460;BME280;50828;53.756;21.140;2023-04-23T02:52:16;99555.20;;;4.94;58.99
64460;BME280;50828;53.756;21.140;2023-04-23T02:57:24;99558.13;;;4.90;58.94
64460;BME280;50828;53.756;21.140;2023-04-23T03:02:32;99556.91;;;4.83;58.90
64460;BME280;50828;53.756;21.140;2023-04-23T03:07:40;99560.00;;;4.78;59.06
64460;BME280;50828;53.756;21.140;2023-04-23T03:12:48;99557.91;;;4.70;59.09
64460;BME280;50828;53.756;21.140;2023-04-23T03:17:56;99563.74;;;4.67;59.12
64460;BME280;50828;53.756;21.140;2023-04-23T03:23:04;99556.79;;;4.59;59.12
64460;BME280;50828;53.756;21.140;2023-04-23T03:28:13;99559.11;;;4.56;59.37
64460;BME280;50828;53.756;21.140;2023-04-23T03:33:21;99557.01;;;4.50;59.35
64460;BME280;50828;53.756;21.140;2023-04-23T03:38:29;99556.24;;;4.46;59.53
64460;BME280;50828;53.756;21.140;2023-04-23T03:43:37;99552.33;;;4.42;59.80
64460;BME280;50828;53.756;21.140;2023-04-23T03:49:09;99551.90;;;4.38;60.07
64460;BME280;50828;53.756;21.140;2023-04-23T03:54:16;99555.65;;;4.34;60.32
64460;BME280;50828;53.756;21.140;2023-04-23T03:59:40;99557.74;;;4.34;60.46
64460;BME280;50828;53.756;21.140;2023-04-23T04:04:48;99554.52;;;4.38;60.37
64460;BME280;50828;53.756;21.140;2023-04-23T04:09:57;99557.70;;;4.50;60.59
64460;BME280;50828;53.756;21.140;2023-04-23T04:15:05;99555.11;;;4.64;60.92
64460;BME280;50828;53.756;21.140;2023-04-23T04:20:14;99556.84;;;4.79;61.02
64460;BME280;50828;53.756;21.140;2023-04-23T04:25:21;99554.88;;;4.93;61.01
64460;BME280;50828;53.756;21.140;2023-04-23T04:30:29;99554.13;;;5.09;61.16
64460;BME280;50828;53.756;21.140;2023-04-23T04:35:36;99548.76;;;5.27;61.27
64460;BME280;50828;53.756;21.140;2023-04-23T04:40:44;99548.67;;;5.49;61.58
64460;BME280;50828;53.756;21.140;2023-04-23T04:45:53;99550.91;;;5.74;61.74
64460;BME280;50828;53.756;21.140;2023-04-23T04:51:05;99545.42;;;6.07;61.59
64460;BME280;50828;53.756;21.140;2023-04-23T04:56:12;99545.02;;;6.48;61.45
64460;BME280;50828;53.756;21.140;2023-04-23T05:01:20;99545.54;;;6.95;61.54
64460;BME280;50828;53.756;21.140;2023-04-23T05:06:29;99539.98;;;7.44;61.31
64460;BME280;50828;53.756;21.140;2023-04-23T05:11:38;99541.02;;;8.00;61.27
64460;BME280;50828;53.756;21.140;2023-04-23T05:16:46;99542.33;;;8.52;61.28
64460;BME280;50828;53.756;21.140;2023-04-23T05:21:55;99542.14;;;9.07;61.07
64460;BME280;50828;53.756;21.140;2023-04-23T05:27:03;99537.56;;;9.59;60.77
64460;BME280;50828;53.756;21.140;2023-04-23T05:32:11;99528.11;;;10.04;60.58
64460;BME280;50828;53.756;21.140;2023-04-23T05:37:19;99534.86;;;10.55;60.18
64460;BME280;50828;53.756;21.140;2023-04-23T05:42:27;99536.97;;;11.01;59.87
64460;BME280;50828;53.756;21.140;2023-04-23T05:47:35;99535.20;;;11.48;59.32
64460;BME280;50828;53.756;21.140;2023-04-23T05:52:43;99531.15;;;11.95;59.36
64460;BME280;50828;53.756;21.140;2023-04-23T05:57:50;99535.62;;;12.41;58.82
64460;BME280;50828;53.756;21.140;2023-04-23T06:02:58;99532.87;;;12.92;58.62
64460;BME280;50828;53.756;21.140;2023-04-23T06:08:06;99529.72;;;13.42;57.91
64460;BME280;50828;53.756;21.140;2023-04-23T06:13:14;99521.95;;;13.82;57.32
64460;BME280;50828;53.756;21.140;2023-04-23T06:18:24;99519.52;;;14.17;57.01
64460;BME280;50828;53.756;21.140;2023-04-23T06:23:33;99520.87;;;14.54;56.58
64460;BME280;50828;53.756;21.140;2023-04-23T06:28:42;99520.34;;;14.89;55.91
64460;BME280;50828;53.756;21.140;2023-04-23T06:34:02;99516.86;;;15.24;55.41
64460;BME280;50828;53.756;21.140;2023-04-23T06:39:10;99509.94;;;15.63;55.12
64460;BME280;50828;53.756;21.140;2023-04-23T06:44:18;99505.98;;;16.11;54.30
64460;BME280;50828;53.756;21.140;2023-04-23T06:49:34;99506.42;;;16.65;53.62
64460;BME280;50828;53.756;21.140;2023-04-23T06:54:42;99508.89;;;17.18;52.71
64460;BME280;50828;53.756;21.140;2023-04-23T06:59:50;99501.89;;;17.65;51.47
64460;BME280;50828;53.756;21.140;2023-04-23T07:04:59;99496.23;;;18.07;50.37
64460;BME280;50828;53.756;21.140;2023-04-23T07:10:08;99497.53;;;18.47;49.37
64460;BME280;50828;53.756;21.140;2023-04-23T07:15:19;99497.15;;;18.86;47.91
64460;BME280;50828;53.756;21.140;2023-04-23T07:20:27;99497.64;;;19.13;46.27
64460;BME280;50828;53.756;21.140;2023-04-23T07:25:35;99494.10;;;19.31;44.66
64460;BME280;50828;53.756;21.140;2023-04-23T07:30:44;99491.95;;;19.43;43.19
64460;BME280;50828;53.756;21.140;2023-04-23T07:35:51;99486.79;;;19.53;42.60
64460;BME280;50828;53.756;21.140;2023-04-23T07:40:58;99486.71;;;19.65;41.09
64460;BME280;50828;53.756;21.140;2023-04-23T07:46:06;99477.80;;;19.71;40.94
64460;BME280;50828;53.756;21.140;2023-04-23T07:51:14;99472.27;;;19.75;39.88
64460;BME280;50828;53.756;21.140;2023-04-23T07:56:22;99468.70;;;19.81;41.05
64460;BME280;50828;53.756;21.140;2023-04-23T08:01:30;99467.17;;;19.90;40.10
64460;BME280;50828;53.756;21.140;2023-04-23T08:06:38;99464.80;;;20.03;39.59
64460;BME280;50828;53.756;21.140;2023-04-23T08:11:46;99462.83;;;20.15;39.96
64460;BME280;50828;53.756;21.140;2023-04-23T08:16:54;99465.66;;;20.27;39.39
64460;BME280;50828;53.756;21.140;2023-04-23T08:22:01;99467.41;;;20.41;39.97
64460;BME280;50828;53.756;21.140;2023-04-23T08:27:09;99464.17;;;20.51;38.28
64460;BME280;50828;53.756;21.140;2023-04-23T08:32:16;99458.84;;;20.52;38.22
64460;BME280;50828;53.756;21.140;2023-04-23T08:37:24;99456.54;;;20.52;38.24
64460;BME280;50828;53.756;21.140;2023-04-23T08:42:40;99450.80;;;20.50;36.65
64460;BME280;50828;53.756;21.140;2023-04-23T08:47:49;99449.54;;;20.51;35.85
64460;BME280;50828;53.756;21.140;2023-04-23T08:52:57;99441.66;;;20.47;36.09
64460;BME280;50828;53.756;21.140;2023-04-23T08:58:05;99438.08;;;20.39;36.81
64460;BME280;50828;53.756;21.140;2023-04-23T09:03:13;99436.09;;;20.35;36.18
64460;BME280;50828;53.756;21.140;2023-04-23T09:08:22;99434.60;;;20.32;36.66
64460;BME280;50828;53.756;21.140;2023-04-23T09:13:30;99431.76;;;20.30;36.74
64460;BME280;50828;53.756;21.140;2023-04-23T09:18:38;99432.73;;;20.29;35.39
64460;BME280;50828;53.756;21.140;2023-04-23T09:23:49;99428.93;;;20.28;34.18
64460;BME280;50828;53.756;21.140;2023-04-23T09:28:57;99426.22;;;20.28;34.48
64460;BME280;50828;53.756;21.140;2023-04-23T09:34:05;99424.09;;;20.26;34.80
64460;BME280;50828;53.756;21.140;2023-04-23T09:39:17;99419.12;;;20.25;33.45
64460;BME280;50828;53.756;21.140;2023-04-23T09:44:24;99415.09;;;20.25;33.94
64460;BME280;50828;53.756;21.140;2023-04-23T09:49:35;99414.78;;;20.26;34.94
64460;BME280;50828;53.756;21.140;2023-04-23T09:54:51;99406.53;;;20.28;34.64
64460;BME280;50828;53.756;21.140;2023-04-23T09:59:59;99397.30;;;20.31;34.42
64460;BME280;50828;53.756;21.140;2023-04-23T10:05:21;99395.95;;;20.34;33.81
64460;BME280;50828;53.756;21.140;2023-04-23T10:10:39;99387.92;;;20.40;34.92
64460;BME280;50828;53.756;21.140;2023-04-23T10:16:08;99384.83;;;20.46;34.20
64460;BME280;50828;53.756;21.140;2023-04-23T10:21:30;99376.17;;;20.51;35.01
64460;BME280;50828;53.756;21.140;2023-04-23T10:26:58;99374.23;;;20.57;35.02
64460;BME280;50828;53.756;21.140;2023-04-23T10:32:07;99363.33;;;20.61;34.39
64460;BME280;50828;53.756;21.140;2023-04-23T10:37:15;99367.99;;;20.66;34.33
64460;BME280;50828;53.756;21.140;2023-04-23T10:42:24;99360.58;;;20.71;34.36
64460;BME280;50828;53.756;21.140;2023-04-23T10:47:32;99350.80;;;20.74;34.34
64460;BME280;50828;53.756;21.140;2023-04-23T10:52:40;99352.34;;;20.77;34.08
64460;BME280;50828;53.756;21.140;2023-04-23T10:57:59;99345.02;;;20.79;33.96
64460;BME280;50828;53.756;21.140;2023-04-23T11:03:27;99338.45;;;20.82;33.96
64460;BME280;50828;53.756;21.140;2023-04-23T11:08:40;99337.40;;;20.87;33.14
64460;BME280;50828;53.756;21.140;2023-04-23T11:13:57;99330.29;;;20.92;33.24
64460;BME280;50828;53.756;21.140;2023-04-23T11:19:19;99326.90;;;20.98;33.41
64460;BME280;50828;53.756;21.140;2023-04-23T11:24:28;99321.37;;;21.01;32.34
64460;BME280;50828;53.756;21.140;2023-04-23T11:29:37;99318.61;;;21.06;33.48
64460;BME280;50828;53.756;21.140;2023-04-23T11:34:47;99313.11;;;21.09;33.43
64460;BME280;50828;53.756;21.140;2023-04-23T11:39:55;99301.45;;;21.11;32.82
64460;BME280;50828;53.756;21.140;2023-04-23T11:45:04;99296.98;;;21.15;32.93
64460;BME280;50828;53.756;21.140;2023-04-23T11:50:18;99293.67;;;21.19;32.84
64460;BME280;50828;53.756;21.140;2023-04-23T11:55:27;99294.13;;;21.23;32.62
64460;BME280;50828;53.756;21.140;2023-04-23T12:00:35;99294.34;;;21.27;31.08
64460;BME280;50828;53.756;21.140;2023-04-23T12:05:44;99292.05;;;21.31;31.54
64460;BME280;50828;53.756;21.140;2023-04-23T12:10:53;99292.16;;;21.33;31.80
64460;BME280;50828;53.756;21.140;2023-04-23T12:16:02;99283.42;;;21.36;30.04
64460;BME280;50828;53.756;21.140;2023-04-23T12:21:10;99282.65;;;21.40;30.41
64460;BME280;50828;53.756;21.140;2023-04-23T12:26:19;99278.10;;;21.45;30.92
64460;BME280;50828;53.756;21.140;2023-04-23T12:31:30;99269.73;;;21.48;30.88
64460;BME280;50828;53.756;21.140;2023-04-23T12:36:38;99267.82;;;21.55;31.04
64460;BME280;50828;53.756;21.140;2023-04-23T12:41:51;99256.02;;;21.60;31.39
64460;BME280;50828;53.756;21.140;2023-04-23T12:47:00;99252.52;;;21.67;31.65
64460;BME280;50828;53.756;21.140;2023-04-23T12:52:10;99250.88;;;21.70;31.69
64460;BME280;50828;53.756;21.140;2023-04-23T12:57:18;99247.71;;;21.73;31.25
64460;BME280;50828;53.756;21.140;2023-04-23T13:02:27;99231.05;;;21.70;30.99
64460;BME280;50828;53.756;21.140;2023-04-23T13:07:36;99236.71;;;21.81;30.97
64460;BME280;50828;53.756;21.140;2023-04-23T13:12:44;99230.58;;;21.85;29.76
64460;BME280;50828;53.756;21.140;2023-04-23T13:17:52;99228.77;;;21.93;28.51
64460;BME280;50828;53.756;21.140;2023-04-23T13:22:59;99220.06;;;21.95;28.42
64460;BME280;50828;53.756;21.140;2023-04-23T13:28:08;99217.48;;;21.98;29.50
64460;BME280;50828;53.756;21.140;2023-04-23T13:33:15;99213.52;;;22.01;30.06
64460;BME280;50828;53.756;21.140;2023-04-23T13:38:24;99205.17;;;22.08;29.27
64460;BME280;50828;53.756;21.140;2023-04-23T13:43:32;99198.30;;;22.15;29.27
64460;BME280;50828;53.756;21.140;2023-04-23T13:48:40;99193.11;;;22.21;30.21
64460;BME280;50828;53.756;21.140;2023-04-23T13:53:47;99187.80;;;22.22;30.39
64460;BME280;50828;53.756;21.140;2023-04-23T13:58:55;99184.85;;;22.22;30.16
64460;BME280;50828;53.756;21.140;2023-04-23T14:04:23;99178.22;;;22.21;29.38
64460;BME280;50828;53.756;21.140;2023-04-23T14:09:32;99174.49;;;22.18;29.93
64460;BME280;50828;53.756;21.140;2023-04-23T14:14:40;99165.30;;;22.15;29.71
64460;BME280;50828;53.756;21.140;2023-04-23T14:19:47;99155.52;;;22.14;30.09
64460;BME280;50828;53.756;21.140;2023-04-23T14:25:03;99156.27;;;22.14;30.02
64460;BME280;50828;53.756;21.140;2023-04-23T14:30:15;99152.92;;;22.12;29.87
64460;BME280;50828;53.756;21.140;2023-04-23T14:35:24;99152.71;;;22.10;29.75
64460;BME280;50828;53.756;21.140;2023-04-23T14:40:46;99146.12;;;22.10;29.47
64460;BME280;50828;53.756;21.140;2023-04-23T14:45:54;99148.52;;;22.11;29.23
64460;BME280;50828;53.756;21.140;2023-04-23T14:51:01;99143.80;;;22.10;28.75
64460;BME280;50828;53.756;21.140;2023-04-23T14:56:09;99139.38;;;22.06;28.34
64460;BME280;50828;53.756;21.140;2023-04-23T15:01:17;99143.02;;;22.05;27.68
64460;BME280;50828;53.756;21.140;2023-04-23T15:06:24;99142.64;;;22.02;27.85
64460;BME280;50828;53.756;21.140;2023-04-23T15:11:33;99142.09;;;21.97;27.46
64460;BME280;50828;53.756;21.140;2023-04-23T15:16:43;99137.85;;;21.93;26.72
64460;BME280;50828;53.756;21.140;2023-04-23T15:21:54;99132.36;;;21.87;26.84
64460;BME280;50828;53.756;21.140;2023-04-23T15:27:01;99133.80;;;21.84;27.68
64460;BME280;50828;53.756;21.140;2023-04-23T15:32:09;99135.08;;;21.80;26.70
64460;BME280;50828;53.756;21.140;2023-04-23T15:37:17;99130.95;;;21.76;27.93
64460;BME280;50828;53.756;21.140;2023-04-23T15:42:26;99123.44;;;21.71;27.00
64460;BME280;50828;53.756;21.140;2023-04-23T15:47:37;99123.66;;;21.65;26.81
64460;BME280;50828;53.756;21.140;2023-04-23T15:52:45;99118.45;;;21.60;27.47
64460;BME280;50828;53.756;21.140;2023-04-23T15:57:55;99116.50;;;21.55;27.79
64460;BME280;50828;53.756;21.140;2023-04-23T16:03:03;99113.49;;;21.49;28.17
64460;BME280;50828;53.756;21.140;2023-04-23T16:08:12;99116.38;;;21.45;28.32
64460;BME280;50828;53.756;21.140;2023-04-23T16:13:21;99112.33;;;21.40;28.25
64460;BME280;50828;53.756;21.140;2023-04-23T16:18:31;99107.34;;;21.35;28.54
64460;BME280;50828;53.756;21.140;2023-04-23T16:23:39;99103.19;;;21.28;28.53
64460;BME280;50828;53.756;21.140;2023-04-23T16:28:46;99099.92;;;21.20;28.54
64460;BME280;50828;53.756;21.140;2023-04-23T16:34:09;99097.61;;;21.13;27.88
64460;BME280;50828;53.756;21.140;2023-04-23T16:39:17;99094.21;;;21.07;28.54
64460;BME280;50828;53.756;21.140;2023-04-23T16:44:26;99092.77;;;20.98;28.75
64460;BME280;50828;53.756;21.140;2023-04-23T16:49:33;99091.14;;;20.91;28.97
64460;BME280;50828;53.756;21.140;2023-04-23T16:54:41;99087.36;;;20.81;29.20
64460;BME280;50828;53.756;21.140;2023-04-23T16:59:50;99084.96;;;20.70;29.29
64460;BME280;50828;53.756;21.140;2023-04-23T17:04:59;99077.84;;;20.59;29.33
64460;BME280;50828;53.756;21.140;2023-04-23T17:10:09;99074.84;;;20.49;29.63
64460;BME280;50828;53.756;21.140;2023-04-23T17:15:17;99073.35;;;20.37;29.91
64460;BME280;50828;53.756;21.140;2023-04-23T17:20:25;99079.83;;;20.27;30.26
64460;BME280;50828;53.756;21.140;2023-04-23T17:25:33;99076.66;;;20.16;30.46
64460;BME280;50828;53.756;21.140;2023-04-23T17:30:41;99072.59;;;20.04;31.10
64460;BME280;50828;53.756;21.140;2023-04-23T17:35:51;99069.02;;;19.89;31.36
64460;BME280;50828;53.756;21.140;2023-04-23T17:41:00;99075.14;;;19.75;31.73
64460;BME280;50828;53.756;21.140;2023-04-23T17:46:07;99077.17;;;19.61;32.09
64460;BME280;50828;53.756;21.140;2023-04-23T17:51:15;99072.99;;;19.44;32.48
64460;BME280;50828;53.756;21.140;2023-04-23T17:56:24;99074.52;;;19.30;32.78
64460;BME280;50828;53.756;21.140;2023-04-23T18:01:31;99075.38;;;19.13;33.20
64460;BME280;50828;53.756;21.140;2023-04-23T18:06:39;99077.64;;;18.96;33.63
64460;BME280;50828;53.756;21.140;2023-04-23T18:11:46;99075.73;;;18.78;33.91
64460;BME280;50828;53.756;21.140;2023-04-23T18:16:54;99080.33;;;18.58;34.05
64460;BME280;50828;53.756;21.140;2023-04-23T18:22:02;99079.41;;;18.38;34.06
64460;BME280;50828;53.756;21.140;2023-04-23T18:27:09;99079.98;;;18.22;34.08
64460;BME280;50828;53.756;21.140;2023-04-23T18:32:17;99078.84;;;18.08;34.10
64460;BME280;50828;53.756;21.140;2023-04-23T18:37:42;99081.19;;;17.98;33.90
64460;BME280;50828;53.756;21.140;2023-04-23T18:42:53;99079.36;;;17.88;34.08
64460;BME280;50828;53.756;21.140;2023-04-23T18:53:42;99071.34;;;17.67;34.27
64460;BME280;50828;53.756;21.140;2023-04-23T18:58:49;99073.09;;;17.57;34.66
64460;BME280;50828;53.756;21.140;2023-04-23T19:03:56;99070.91;;;17.48;34.76
64460;BME280;50828;53.756;21.140;2023-04-23T19:09:05;99068.21;;;17.37;35.00
64460;BME280;50828;53.756;21.140;2023-04-23T19:14:12;99066.98;;;17.24;35.11
64460;BME280;50828;53.756;21.140;2023-04-23T19:19:20;99068.38;;;17.14;35.25
64460;BME280;50828;53.756;21.140;2023-04-23T19:24:29;99068.59;;;17.05;35.37
64460;BME280;50828;53.756;21.140;2023-04-23T19:29:37;99067.80;;;16.95;35.61
64460;BME280;50828;53.756;21.140;2023-04-23T19:34:45;99066.59;;;16.86;35.62
64460;BME280;50828;53.756;21.140;2023-04-23T19:39:53;99066.04;;;16.78;35.70
64460;BME280;50828;53.756;21.140;2023-04-23T19:45:00;99063.93;;;16.68;35.86
64460;BME280;50828;53.756;21.140;2023-04-23T19:50:09;99061.17;;;16.61;35.93
64460;BME280;50828;53.756;21.140;2023-04-23T19:55:19;99059.73;;;16.53;36.16
64460;BME280;50828;53.756;21.140;2023-04-23T20:00:32;99058.14;;;16.44;36.40
64460;BME280;50828;53.756;21.140;2023-04-23T20:05:42;99053.20;;;16.34;36.30
64460;BME280;50828;53.756;21.140;2023-04-23T20:10:50;99051.68;;;16.27;36.75
64460;BME280;50828;53.756;21.140;2023-04-23T20:15:58;99049.59;;;16.18;36.72
64460;BME280;50828;53.756;21.140;2023-04-23T20:21:06;99045.79;;;16.09;36.87
64460;BME280;50828;53.756;21.140;2023-04-23T20:26:14;99042.71;;;15.99;37.00
64460;BME280;50828;53.756;21.140;2023-04-23T20:31:21;99042.91;;;15.92;37.05
64460;BME280;50828;53.756;21.140;2023-04-23T20:36:29;99040.10;;;15.85;37.32
64460;BME280;50828;53.756;21.140;2023-04-23T20:41:38;99031.48;;;15.77;37.57
64460;BME280;50828;53.756;21.140;2023-04-23T20:46:46;99031.64;;;15.70;37.53
64460;BME280;50828;53.756;21.140;2023-04-23T20:51:54;99032.23;;;15.63;37.88
64460;BME280;50828;53.756;21.140;2023-04-23T20:57:01;99030.11;;;15.55;38.00
64460;BME280;50828;53.756;21.140;2023-04-23T21:02:10;99034.19;;;15.49;37.96
64460;BME280;50828;53.756;21.140;2023-04-23T21:07:20;99040.83;;;15.41;38.31
64460;BME280;50828;53.756;21.140;2023-04-23T21:12:28;99047.84;;;15.35;38.18
64460;BME280;50828;53.756;21.140;2023-04-23T21:17:35;99082.23;;;15.31;38.48
64460;BME280;50828;53.756;21.140;2023-04-23T21:22:43;99077.62;;;15.28;38.51
64460;BME280;50828;53.756;21.140;2023-04-23T21:27:50;99068.56;;;15.21;38.61
64460;BME280;50828;53.756;21.140;2023-04-23T21:32:59;99074.40;;;15.10;38.49
64460;BME280;50828;53.756;21.140;2023-04-23T21:38:06;99086.65;;;15.00;38.58
64460;BME280;50828;53.756;21.140;2023-04-23T21:43:14;99074.73;;;14.86;38.96
64460;BME280;50828;53.756;21.140;2023-04-23T21:48:22;99077.23;;;14.74;39.15
64460;BME280;50828;53.756;21.140;2023-04-23T21:53:29;99072.02;;;14.60;39.57
64460;BME280;50828;53.756;21.140;2023-04-23T21:58:37;99066.13;;;14.51;40.05
64460;BME280;50828;53.756;21.140;2023-04-23T22:03:44;99061.23;;;14.40;40.28
64460;BME280;50828;53.756;21.140;2023-04-23T22:08:52;99053.39;;;14.29;40.41
64460;BME280;50828;53.756;21.140;2023-04-23T22:14:01;99050.13;;;14.17;40.30
64460;BME280;50828;53.756;21.140;2023-04-23T22:19:08;99045.77;;;14.07;40.57
64460;BME280;50828;53.756;21.140;2023-04-23T22:24:17;99048.52;;;13.96;41.12
64460;BME280;50828;53.756;21.140;2023-04-23T22:29:24;99041.79;;;13.83;41.44
64460;BME280;50828;53.756;21.140;2023-04-23T22:34:32;99046.23;;;13.70;41.80
64460;BME280;50828;53.756;21.140;2023-04-23T22:39:39;99046.12;;;13.56;42.07
64460;BME280;50828;53.756;21.140;2023-04-23T22:44:47;99039.56;;;13.41;42.55
64460;BME280;50828;53.756;21.140;2023-04-23T22:49:55;99024.71;;;13.25;42.98
64460;BME280;50828;53.756;21.140;2023-04-23T22:55:04;99022.51;;;13.13;43.23
64460;BME280;50828;53.756;21.140;2023-04-23T23:00:14;99020.77;;;13.00;43.61
64460;BME280;50828;53.756;21.140;2023-04-23T23:05:22;99010.80;;;12.85;43.58
64460;BME280;50828;53.756;21.140;2023-04-23T23:10:29;99014.89;;;12.71;44.07
64460;BME280;50828;53.756;21.140;2023-04-23T23:15:37;99008.46;;;12.57;44.07
64460;BME280;50828;53.756;21.140;2023-04-23T23:20:44;99003.80;;;12.44;44.25
64460;BME280;50828;53.756;21.140;2023-04-23T23:25:52;99002.44;;;12.32;44.63
64460;BME280;50828;53.756;21.140;2023-04-23T23:31:02;98999.77;;;12.22;45.18
64460;BME280;50828;53.756;21.140;2023-04-23T23:36:10;98999.36;;;12.12;45.19
64460;BME280;50828;53.756;21.140;2023-04-23T23:41:17;98985.10;;;12.03;45.58
64460;BME280;50828;53.756;21.140;2023-04-23T23:46:26;98969.30;;;11.96;45.86
64460;BME280;50828;53.756;21.140;2023-04-23T23:51:33;98966.45;;;11.91;46.14
64460;BME280;50828;53.756;21.140;2023-04-23T23:56:41;98967.19;;;11.93;46.46
